sensor_id;sensor_type;location;lat;lon;timestamp;temperature;humidity
2497;DHT22;1259;48.306;14.374;2023-04-06T00:02:24;2.30;67.30
2497;DHT22;1259;48.306;14.374;2023-04-06T00:04:52;2.20;66.90
2497;DHT22;1259;48.306;14.374;2023-04-06T00:07:18;2.10;66.50
2497;DHT22;1259;48.306;14.374;2023-04-06T00:09:45;2.10;66.50
2497;DHT22;1259;48.306;14.374;2023-04-06T00:12:12;2.00;67.40
2497;DHT22;1259;48.306;14.374;2023-04-06T00:14:38;2.00;67.30
2497;DHT22;1259;48.306;14.374;2023-04-06T00:17:05;1.90;66.40
2497;DHT22;1259;48.306;14.374;2023-04-06T00:19:32;1.90;66.90
2497;DHT22;1259;48.306;14.374;2023-04-06T00:22:00;1.90;67.90
2497;DHT22;1259;48.306;14.374;2023-04-06T00:24:27;1.80;67.20
2497;DHT22;1259;48.306;14.374;2023-04-06T00:26:54;1.90;67.60
2497;DHT22;1259;48.306;14.374;2023-04-06T00:29:21;1.90;67.70
2497;DHT22;1259;48.306;14.374;2023-04-06T00:31:48;1.90;67.80
2497;DHT22;1259;48.306;14.374;2023-04-06T00:34:14;1.90;67.30
2497;DHT22;1259;48.306;14.374;2023-04-06T00:36:42;1.80;68.20
2497;DHT22;1259;48.306;14.374;2023-04-06T00:39:10;1.80;67.90
2497;DHT22;1259;48.306;14.374;2023-04-06T00:41:36;1.80;67.80
2497;DHT22;1259;48.306;14.374;2023-04-06T00:44:03;1.80;67.80
2497;DHT22;1259;48.306;14.374;2023-04-06T00:46:30;1.80;67.80
2497;DHT22;1259;48.306;14.374;2023-04-06T00:48:56;1.70;67.80
2497;DHT22;1259;48.306;14.374;2023-04-06T00:51:23;1.70;67.60
2497;DHT22;1259;48.306;14.374;2023-04-06T00:53:50;1.70;67.60
2497;DHT22;1259;48.306;14.374;2023-04-06T00:56:18;1.70;68.20
2497;DHT22;1259;48.306;14.374;2023-04-06T00:58:46;1.70;68.20
2497;DHT22;1259;48.306;14.374;2023-04-06T01:01:13;1.70;67.80
2497;DHT22;1259;48.306;14.374;2023-04-06T01:03:39;1.60;67.70
2497;DHT22;1259;48.306;14.374;2023-04-06T01:06:07;1.60;68.00
2497;DHT22;1259;48.306;14.374;2023-04-06T01:08:34;1.60;68.50
2497;DHT22;1259;48.306;14.374;2023-04-06T01:11:01;1.60;67.30
2497;DHT22;1259;48.306;14.374;2023-04-06T01:13:29;1.60;68.00
2497;DHT22;1259;48.306;14.374;2023-04-06T01:15:55;1.60;68.20
2497;DHT22;1259;48.306;14.374;2023-04-06T01:18:25;1.50;68.20
2497;DHT22;1259;48.306;14.374;2023-04-06T01:20:52;1.60;68.60
2497;DHT22;1259;48.306;14.374;2023-04-06T01:23:20;1.50;68.20
2497;DHT22;1259;48.306;14.374;2023-04-06T01:25:46;1.50;68.50
2497;DHT22;1259;48.306;14.374;2023-04-06T01:28:13;1.50;68.00
2497;DHT22;1259;48.306;14.374;2023-04-06T01:30:40;1.50;68.00
2497;DHT22;1259;48.306;14.374;2023-04-06T01:33:07;1.40;68.20
2497;DHT22;1259;48.306;14.374;2023-04-06T01:35:33;1.40;68.40
2497;DHT22;1259;48.306;14.374;2023-04-06T01:38:00;1.40;67.90
2497;DHT22;1259;48.306;14.374;2023-04-06T01:40:28;1.40;67.80
2497;DHT22;1259;48.306;14.374;2023-04-06T01:42:55;1.30;67.70
2497;DHT22;1259;48.306;14.374;2023-04-06T01:45:22;1.30;68.40
2497;DHT22;1259;48.306;14.374;2023-04-06T01:47:48;1.30;68.20
2497;DHT22;1259;48.306;14.374;2023-04-06T01:50:15;1.20;68.10
2497;DHT22;1259;48.306;14.374;2023-04-06T01:52:42;1.20;68.20
2497;DHT22;1259;48.306;14.374;2023-04-06T01:55:08;1.20;68.50
2497;DHT22;1259;48.306;14.374;2023-04-06T01:57:36;1.20;68.70
2497;DHT22;1259;48.306;14.374;2023-04-06T02:00:03;1.20;68.20
2497;DHT22;1259;48.306;14.374;2023-04-06T02:02:30;1.20;68.00
2497;DHT22;1259;48.306;14.374;2023-04-06T02:04:57;1.10;67.90
2497;DHT22;1259;48.306;14.374;2023-04-06T02:07:23;1.10;67.90
2497;DHT22;1259;48.306;14.374;2023-04-06T02:09:53;1.10;68.10
2497;DHT22;1259;48.306;14.374;2023-04-06T02:12:20;1.10;68.00
2497;DHT22;1259;48.306;14.374;2023-04-06T02:14:48;1.10;68.00
2497;DHT22;1259;48.306;14.374;2023-04-06T02:17:15;1.10;68.00
2497;DHT22;1259;48.306;14.374;2023-04-06T02:19:41;1.00;67.90
2497;DHT22;1259;48.306;14.374;2023-04-06T02:22:08;1.00;68.00
2497;DHT22;1259;48.306;14.374;2023-04-06T02:24:35;1.00;68.20
2497;DHT22;1259;48.306;14.374;2023-04-06T02:27:02;1.00;68.30
2497;DHT22;1259;48.306;14.374;2023-04-06T02:29:28;0.90;68.30
2497;DHT22;1259;48.306;14.374;2023-04-06T02:31:56;0.90;68.30
2497;DHT22;1259;48.306;14.374;2023-04-06T02:34:23;0.90;68.20
2497;DHT22;1259;48.306;14.374;2023-04-06T02:36:50;0.90;68.30
2497;DHT22;1259;48.306;14.374;2023-04-06T02:39:17;0.90;68.50
2497;DHT22;1259;48.306;14.374;2023-04-06T02:41:43;0.90;68.80
2497;DHT22;1259;48.306;14.374;2023-04-06T02:44:10;0.90;69.10
2497;DHT22;1259;48.306;14.374;2023-04-06T02:46:36;0.90;69.30
2497;DHT22;1259;48.306;14.374;2023-04-06T02:49:05;0.90;69.50
2497;DHT22;1259;48.306;14.374;2023-04-06T02:51:31;0.90;69.20
2497;DHT22;1259;48.306;14.374;2023-04-06T02:53:58;0.90;69.30
2497;DHT22;1259;48.306;14.374;2023-04-06T02:56:25;0.90;69.60
2497;DHT22;1259;48.306;14.374;2023-04-06T02:58:51;0.80;69.70
2497;DHT22;1259;48.306;14.374;2023-04-06T03:01:18;0.80;69.70
2497;DHT22;1259;48.306;14.374;2023-04-06T03:03:45;0.80;69.70
2497;DHT22;1259;48.306;14.374;2023-04-06T03:06:13;0.70;69.80
2497;DHT22;1259;48.306;14.374;2023-04-06T03:08:40;0.60;70.90
2497;DHT22;1259;48.306;14.374;2023-04-06T03:11:06;0.60;71.40
2497;DHT22;1259;48.306;14.374;2023-04-06T03:13:33;0.50;70.90
2497;DHT22;1259;48.306;14.374;2023-04-06T03:16:00;0.50;70.90
2497;DHT22;1259;48.306;14.374;2023-04-06T03:18:27;0.60;70.50
2497;DHT22;1259;48.306;14.374;2023-04-06T03:20:54;0.60;70.50
2497;DHT22;1259;48.306;14.374;2023-04-06T03:23:22;0.60;70.50
2497;DHT22;1259;48.306;14.374;2023-04-06T03:25:48;0.60;70.40
2497;DHT22;1259;48.306;14.374;2023-04-06T03:28:15;0.60;70.70
2497;DHT22;1259;48.306;14.374;2023-04-06T03:30:42;0.50;70.80
2497;DHT22;1259;48.306;14.374;2023-04-06T03:33:09;0.50;71.30
2497;DHT22;1259;48.306;14.374;2023-04-06T03:35:35;0.40;71.30
2497;DHT22;1259;48.306;14.374;2023-04-06T03:38:02;0.40;71.40
2497;DHT22;1259;48.306;14.374;2023-04-06T03:40:30;0.40;71.50
2497;DHT22;1259;48.306;14.374;2023-04-06T03:42:57;0.30;71.70
2497;DHT22;1259;48.306;14.374;2023-04-06T03:45:24;0.30;71.80
2497;DHT22;1259;48.306;14.374;2023-04-06T03:47:50;0.30;71.80
2497;DHT22;1259;48.306;14.374;2023-04-06T03:50:17;0.30;71.70
2497;DHT22;1259;48.306;14.374;2023-04-06T03:52:44;0.20;71.80
2497;DHT22;1259;48.306;14.374;2023-04-06T03:55:10;0.30;72.20
2497;DHT22;1259;48.306;14.374;2023-04-06T03:57:38;0.20;72.20
2497;DHT22;1259;48.306;14.374;2023-04-06T04:00:06;0.20;72.30
2497;DHT22;1259;48.306;14.374;2023-04-06T04:02:33;0.00;72.60
2497;DHT22;1259;48.306;14.374;2023-04-06T04:04:59;-0.10;73.00
2497;DHT22;1259;48.306;14.374;2023-04-06T04:07:26;-0.10;73.30
2497;DHT22;1259;48.306;14.374;2023-04-06T04:09:53;0.00;73.30
2497;DHT22;1259;48.306;14.374;2023-04-06T04:12:20;0.00;73.00
2497;DHT22;1259;48.306;14.374;2023-04-06T04:14:48;0.00;73.00
2497;DHT22;1259;48.306;14.374;2023-04-06T04:17:14;0.10;73.10
2497;DHT22;1259;48.306;14.374;2023-04-06T04:19:41;0.10;72.90
2497;DHT22;1259;48.306;14.374;2023-04-06T04:22:08;0.10;72.80
2497;DHT22;1259;48.306;14.374;2023-04-06T04:24:34;0.10;72.80
2497;DHT22;1259;48.306;14.374;2023-04-06T04:27:01;0.10;72.90
2497;DHT22;1259;48.306;14.374;2023-04-06T04:29:28;0.00;73.00
2497;DHT22;1259;48.306;14.374;2023-04-06T04:31:56;0.00;73.10
2497;DHT22;1259;48.306;14.374;2023-04-06T04:34:23;-0.10;73.70
2497;DHT22;1259;48.306;14.374;2023-04-06T04:36:50;0.00;73.80
2497;DHT22;1259;48.306;14.374;2023-04-06T04:39:17;0.00;73.60
2497;DHT22;1259;48.306;14.374;2023-04-06T04:41:43;0.10;73.60
2497;DHT22;1259;48.306;14.374;2023-04-06T04:44:10;0.10;73.90
2497;DHT22;1259;48.306;14.374;2023-04-06T04:46:37;0.00;74.80
2497;DHT22;1259;48.306;14.374;2023-04-06T04:49:07;0.10;74.40
2497;DHT22;1259;48.306;14.374;2023-04-06T04:51:34;0.10;74.40
2497;DHT22;1259;48.306;14.374;2023-04-06T04:54:01;0.10;74.40
2497;DHT22;1259;48.306;14.374;2023-04-06T04:56:28;0.10;75.30
2497;DHT22;1259;48.306;14.374;2023-04-06T04:58:55;0.10;75.50
2497;DHT22;1259;48.306;14.374;2023-04-06T05:01:21;0.10;75.70
2497;DHT22;1259;48.306;14.374;2023-04-06T05:03:48;0.20;77.00
2497;DHT22;1259;48.306;14.374;2023-04-06T05:06:16;0.20;76.60
2497;DHT22;1259;48.306;14.374;2023-04-06T05:08:44;0.30;75.60
2497;DHT22;1259;48.306;14.374;2023-04-06T05:11:10;0.20;77.10
2497;DHT22;1259;48.306;14.374;2023-04-06T05:13:37;0.20;77.30
2497;DHT22;1259;48.306;14.374;2023-04-06T05:16:04;0.30;76.70
2497;DHT22;1259;48.306;14.374;2023-04-06T05:18:31;0.30;78.30
2497;DHT22;1259;48.306;14.374;2023-04-06T05:20:57;0.40;77.50
2497;DHT22;1259;48.306;14.374;2023-04-06T05:23:26;0.40;77.00
2497;DHT22;1259;48.306;14.374;2023-04-06T05:25:52;0.50;77.30
2497;DHT22;1259;48.306;14.374;2023-04-06T05:28:19;0.40;79.00
2497;DHT22;1259;48.306;14.374;2023-04-06T05:30:46;0.60;80.60
2497;DHT22;1259;48.306;14.374;2023-04-06T05:33:12;0.70;82.80
2497;DHT22;1259;48.306;14.374;2023-04-06T05:35:39;0.70;83.60
2497;DHT22;1259;48.306;14.374;2023-04-06T05:38:07;0.80;84.40
2497;DHT22;1259;48.306;14.374;2023-04-06T05:40:35;0.90;85.80
2497;DHT22;1259;48.306;14.374;2023-04-06T05:43:02;1.10;86.50
2497;DHT22;1259;48.306;14.374;2023-04-06T05:45:29;1.30;86.60
2497;DHT22;1259;48.306;14.374;2023-04-06T05:47:56;1.50;86.60
2497;DHT22;1259;48.306;14.374;2023-04-06T05:50:23;1.70;85.90
2497;DHT22;1259;48.306;14.374;2023-04-06T05:52:49;1.70;86.20
2497;DHT22;1259;48.306;14.374;2023-04-06T05:55:16;1.90;86.90
2497;DHT22;1259;48.306;14.374;2023-04-06T05:57:44;2.10;87.30
2497;DHT22;1259;48.306;14.374;2023-04-06T06:00:11;2.00;85.80
2497;DHT22;1259;48.306;14.374;2023-04-06T06:02:38;2.00;87.50
2497;DHT22;1259;48.306;14.374;2023-04-06T06:05:07;1.90;86.40
2497;DHT22;1259;48.306;14.374;2023-04-06T06:07:34;2.00;86.00
2497;DHT22;1259;48.306;14.374;2023-04-06T06:10:01;2.00;85.80
2497;DHT22;1259;48.306;14.374;2023-04-06T06:12:28;2.00;87.20
2497;DHT22;1259;48.306;14.374;2023-04-06T06:14:56;1.90;88.10
2497;DHT22;1259;48.306;14.374;2023-04-06T06:17:22;2.00;88.00
2497;DHT22;1259;48.306;14.374;2023-04-06T06:19:49;2.10;88.10
2497;DHT22;1259;48.306;14.374;2023-04-06T06:22:16;2.20;88.20
2497;DHT22;1259;48.306;14.374;2023-04-06T06:24:42;2.30;87.10
2497;DHT22;1259;48.306;14.374;2023-04-06T06:27:09;2.30;85.10
2497;DHT22;1259;48.306;14.374;2023-04-06T06:29:36;2.30;85.00
2497;DHT22;1259;48.306;14.374;2023-04-06T06:32:04;2.50;84.90
2497;DHT22;1259;48.306;14.374;2023-04-06T06:34:31;2.60;85.10
2497;DHT22;1259;48.306;14.374;2023-04-06T06:36:57;2.80;85.80
2497;DHT22;1259;48.306;14.374;2023-04-06T06:39:25;2.90;88.90
2497;DHT22;1259;48.306;14.374;2023-04-06T06:41:51;3.10;88.60
2497;DHT22;1259;48.306;14.374;2023-04-06T06:44:19;3.20;89.20
2497;DHT22;1259;48.306;14.374;2023-04-06T06:46:46;3.20;84.00
2497;DHT22;1259;48.306;14.374;2023-04-06T06:49:14;3.30;86.00
2497;DHT22;1259;48.306;14.374;2023-04-06T06:51:41;3.20;89.00
2497;DHT22;1259;48.306;14.374;2023-04-06T06:54:08;3.20;88.80
2497;DHT22;1259;48.306;14.374;2023-04-06T06:56:35;3.10;90.70
2497;DHT22;1259;48.306;14.374;2023-04-06T06:59:03;2.90;92.40
2497;DHT22;1259;48.306;14.374;2023-04-06T07:01:30;2.70;93.60
2497;DHT22;1259;48.306;14.374;2023-04-06T07:03:57;2.60;94.00
2497;DHT22;1259;48.306;14.374;2023-04-06T07:06:25;2.40;94.30
2497;DHT22;1259;48.306;14.374;2023-04-06T07:08:52;2.30;95.40
2497;DHT22;1259;48.306;14.374;2023-04-06T07:11:18;2.20;95.50
2497;DHT22;1259;48.306;14.374;2023-04-06T07:13:46;2.30;94.80
2497;DHT22;1259;48.306;14.374;2023-04-06T07:16:12;2.60;94.80
2497;DHT22;1259;48.306;14.374;2023-04-06T07:18:39;2.80;94.30
2497;DHT22;1259;48.306;14.374;2023-04-06T07:21:06;3.00;94.50
2497;DHT22;1259;48.306;14.374;2023-04-06T07:23:34;3.10;92.70
2497;DHT22;1259;48.306;14.374;2023-04-06T07:26:00;3.30;91.90
2497;DHT22;1259;48.306;14.374;2023-04-06T07:28:27;3.10;93.20
2497;DHT22;1259;48.306;14.374;2023-04-06T07:30:54;3.20;93.60
2497;DHT22;1259;48.306;14.374;2023-04-06T07:33:20;3.50;92.80
2497;DHT22;1259;48.306;14.374;2023-04-06T07:35:47;3.40;93.40
2497;DHT22;1259;48.306;14.374;2023-04-06T07:38:14;3.30;94.00
2497;DHT22;1259;48.306;14.374;2023-04-06T07:40:42;3.20;95.70
2497;DHT22;1259;48.306;14.374;2023-04-06T07:43:08;3.50;95.50
2497;DHT22;1259;48.306;14.374;2023-04-06T07:45:35;3.70;92.00
2497;DHT22;1259;48.306;14.374;2023-04-06T07:48:02;3.70;91.30
2497;DHT22;1259;48.306;14.374;2023-04-06T07:50:29;3.80;91.20
2497;DHT22;1259;48.306;14.374;2023-04-06T07:52:55;3.90;91.00
2497;DHT22;1259;48.306;14.374;2023-04-06T07:55:23;3.80;91.70
2497;DHT22;1259;48.306;14.374;2023-04-06T07:57:51;3.80;90.80
2497;DHT22;1259;48.306;14.374;2023-04-06T08:00:17;3.80;89.80
2497;DHT22;1259;48.306;14.374;2023-04-06T08:02:44;4.00;91.10
2497;DHT22;1259;48.306;14.374;2023-04-06T08:05:11;4.10;89.80
2497;DHT22;1259;48.306;14.374;2023-04-06T08:07:38;4.10;89.90
2497;DHT22;1259;48.306;14.374;2023-04-06T08:10:05;4.20;89.40
2497;DHT22;1259;48.306;14.374;2023-04-06T08:12:32;4.20;87.60
2497;DHT22;1259;48.306;14.374;2023-04-06T08:15:00;4.20;85.00
2497;DHT22;1259;48.306;14.374;2023-04-06T08:17:27;4.30;84.70
2497;DHT22;1259;48.306;14.374;2023-04-06T08:19:55;4.40;84.50
2497;DHT22;1259;48.306;14.374;2023-04-06T08:22:22;4.50;83.20
2497;DHT22;1259;48.306;14.374;2023-04-06T08:24:49;4.60;83.80
2497;DHT22;1259;48.306;14.374;2023-04-06T08:27:15;4.70;82.90
2497;DHT22;1259;48.306;14.374;2023-04-06T08:29:42;4.80;79.70
2497;DHT22;1259;48.306;14.374;2023-04-06T08:32:10;5.00;79.10
2497;DHT22;1259;48.306;14.374;2023-04-06T08:34:37;5.00;78.60
2497;DHT22;1259;48.306;14.374;2023-04-06T08:37:03;5.10;77.80
2497;DHT22;1259;48.306;14.374;2023-04-06T08:39:30;5.10;76.40
2497;DHT22;1259;48.306;14.374;2023-04-06T08:41:59;5.30;76.00
2497;DHT22;1259;48.306;14.374;2023-04-06T08:44:28;5.50;75.40
2497;DHT22;1259;48.306;14.374;2023-04-06T08:46:55;5.60;75.10
2497;DHT22;1259;48.306;14.374;2023-04-06T08:49:23;5.60;72.90
2497;DHT22;1259;48.306;14.374;2023-04-06T08:51:50;5.60;72.70
2497;DHT22;1259;48.306;14.374;2023-04-06T08:54:17;5.90;74.40
2497;DHT22;1259;48.306;14.374;2023-04-06T08:56:44;6.20;76.20
2497;DHT22;1259;48.306;14.374;2023-04-06T08:59:10;6.30;70.70
2497;DHT22;1259;48.306;14.374;2023-04-06T09:01:39;6.40;69.60
2497;DHT22;1259;48.306;14.374;2023-04-06T09:04:07;6.50;70.00
2497;DHT22;1259;48.306;14.374;2023-04-06T09:06:37;6.50;69.00
2497;DHT22;1259;48.306;14.374;2023-04-06T09:09:05;6.70;69.00
2497;DHT22;1259;48.306;14.374;2023-04-06T09:11:45;6.60;64.60
2497;DHT22;1259;48.306;14.374;2023-04-06T09:14:12;6.60;65.80
2497;DHT22;1259;48.306;14.374;2023-04-06T09:16:39;6.60;65.60
2497;DHT22;1259;48.306;14.374;2023-04-06T09:19:06;6.80;65.30
2497;DHT22;1259;48.306;14.374;2023-04-06T09:21:32;7.00;66.00
2497;DHT22;1259;48.306;14.374;2023-04-06T09:24:01;6.90;65.10
2497;DHT22;1259;48.306;14.374;2023-04-06T09:26:27;6.80;64.50
2497;DHT22;1259;48.306;14.374;2023-04-06T09:28:55;6.80;66.20
2497;DHT22;1259;48.306;14.374;2023-04-06T09:31:22;6.80;65.70
2497;DHT22;1259;48.306;14.374;2023-04-06T09:33:49;6.90;64.80
2497;DHT22;1259;48.306;14.374;2023-04-06T09:36:17;6.80;66.30
2497;DHT22;1259;48.306;14.374;2023-04-06T09:38:54;7.00;67.20
2497;DHT22;1259;48.306;14.374;2023-04-06T09:41:23;7.10;66.00
2497;DHT22;1259;48.306;14.374;2023-04-06T09:43:50;6.90;64.60
2497;DHT22;1259;48.306;14.374;2023-04-06T09:46:17;7.20;65.30
2497;DHT22;1259;48.306;14.374;2023-04-06T09:48:44;7.20;64.80
2497;DHT22;1259;48.306;14.374;2023-04-06T09:51:11;7.00;67.30
2497;DHT22;1259;48.306;14.374;2023-04-06T09:53:41;7.00;65.30
2497;DHT22;1259;48.306;14.374;2023-04-06T09:56:09;7.20;65.80
2497;DHT22;1259;48.306;14.374;2023-04-06T09:58:39;7.30;65.70
2497;DHT22;1259;48.306;14.374;2023-04-06T10:01:08;7.20;63.80
2497;DHT22;1259;48.306;14.374;2023-04-06T10:03:36;7.20;64.10
2497;DHT22;1259;48.306;14.374;2023-04-06T10:06:07;7.50;65.90
2497;DHT22;1259;48.306;14.374;2023-04-06T10:08:36;7.90;66.30
2497;DHT22;1259;48.306;14.374;2023-04-06T10:11:05;8.00;64.60
2497;DHT22;1259;48.306;14.374;2023-04-06T10:13:32;8.10;62.10
2497;DHT22;1259;48.306;14.374;2023-04-06T10:16:01;7.90;62.50
2497;DHT22;1259;48.306;14.374;2023-04-06T10:18:28;7.80;62.40
2497;DHT22;1259;48.306;14.374;2023-04-06T10:20:55;8.10;64.60
2497;DHT22;1259;48.306;14.374;2023-04-06T10:23:24;8.20;64.10
2497;DHT22;1259;48.306;14.374;2023-04-06T10:25:53;8.20;64.40
2497;DHT22;1259;48.306;14.374;2023-04-06T10:28:20;8.20;61.60
2497;DHT22;1259;48.306;14.374;2023-04-06T10:30:47;8.50;63.50
2497;DHT22;1259;48.306;14.374;2023-04-06T10:33:15;8.60;62.10
2497;DHT22;1259;48.306;14.374;2023-04-06T10:35:42;8.50;60.60
2497;DHT22;1259;48.306;14.374;2023-04-06T10:38:09;8.40;59.20
2497;DHT22;1259;48.306;14.374;2023-04-06T10:40:37;8.40;57.80
2497;DHT22;1259;48.306;14.374;2023-04-06T10:43:07;8.40;59.50
2497;DHT22;1259;48.306;14.374;2023-04-06T10:45:34;8.40;59.10
2497;DHT22;1259;48.306;14.374;2023-04-06T10:48:05;8.50;59.70
2497;DHT22;1259;48.306;14.374;2023-04-06T10:50:40;8.30;57.40
2497;DHT22;1259;48.306;14.374;2023-04-06T10:53:07;8.20;58.30
2497;DHT22;1259;48.306;14.374;2023-04-06T10:55:34;8.40;57.80
2497;DHT22;1259;48.306;14.374;2023-04-06T10:58:00;8.50;57.90
2497;DHT22;1259;48.306;14.374;2023-04-06T11:00:27;8.70;59.80
2497;DHT22;1259;48.306;14.374;2023-04-06T11:02:58;8.80;59.60
2497;DHT22;1259;48.306;14.374;2023-04-06T11:05:25;8.70;58.50
2497;DHT22;1259;48.306;14.374;2023-04-06T11:07:53;8.80;59.10
2497;DHT22;1259;48.306;14.374;2023-04-06T11:10:21;8.80;59.80
2497;DHT22;1259;48.306;14.374;2023-04-06T11:12:52;8.70;59.30
2497;DHT22;1259;48.306;14.374;2023-04-06T11:15:19;8.60;58.60
2497;DHT22;1259;48.306;14.374;2023-04-06T11:17:46;8.60;59.90
2497;DHT22;1259;48.306;14.374;2023-04-06T11:20:14;8.70;59.30
2497;DHT22;1259;48.306;14.374;2023-04-06T11:22:47;8.60;59.40
2497;DHT22;1259;48.306;14.374;2023-04-06T11:25:16;8.80;60.10
2497;DHT22;1259;48.306;14.374;2023-04-06T11:27:42;8.80;59.60
2497;DHT22;1259;48.306;14.374;2023-04-06T11:30:09;8.80;60.00
2497;DHT22;1259;48.306;14.374;2023-04-06T11:32:39;8.70;59.30
2497;DHT22;1259;48.306;14.374;2023-04-06T11:35:06;8.60;59.80
2497;DHT22;1259;48.306;14.374;2023-04-06T11:37:33;8.70;60.30
2497;DHT22;1259;48.306;14.374;2023-04-06T11:39:59;8.80;60.30
2497;DHT22;1259;48.306;14.374;2023-04-06T11:42:28;8.80;58.80
2497;DHT22;1259;48.306;14.374;2023-04-06T11:44:55;8.90;58.60
2497;DHT22;1259;48.306;14.374;2023-04-06T11:47:27;9.00;61.00
2497;DHT22;1259;48.306;14.374;2023-04-06T11:49:53;8.80;58.90
2497;DHT22;1259;48.306;14.374;2023-04-06T11:52:21;8.70;58.90
2497;DHT22;1259;48.306;14.374;2023-04-06T11:54:48;9.00;61.40
2497;DHT22;1259;48.306;14.374;2023-04-06T11:57:15;8.90;59.30
2497;DHT22;1259;48.306;14.374;2023-04-06T11:59:44;8.60;59.50
2497;DHT22;1259;48.306;14.374;2023-04-06T12:02:11;8.60;59.80
2497;DHT22;1259;48.306;14.374;2023-04-06T12:04:37;8.90;60.70
2497;DHT22;1259;48.306;14.374;2023-04-06T12:07:04;8.90;60.90
2497;DHT22;1259;48.306;14.374;2023-04-06T12:09:31;9.10;60.00
2497;DHT22;1259;48.306;14.374;2023-04-06T12:11:59;9.00;59.60
2497;DHT22;1259;48.306;14.374;2023-04-06T12:14:26;9.10;60.00
2497;DHT22;1259;48.306;14.374;2023-04-06T12:16:54;9.10;58.30
2497;DHT22;1259;48.306;14.374;2023-04-06T12:19:21;9.30;59.50
2497;DHT22;1259;48.306;14.374;2023-04-06T12:21:50;9.40;59.40
2497;DHT22;1259;48.306;14.374;2023-04-06T12:24:17;9.60;60.30
2497;DHT22;1259;48.306;14.374;2023-04-06T12:26:44;9.30;57.50
2497;DHT22;1259;48.306;14.374;2023-04-06T12:29:10;9.40;58.70
2497;DHT22;1259;48.306;14.374;2023-04-06T12:31:38;9.50;58.50
2497;DHT22;1259;48.306;14.374;2023-04-06T12:34:07;9.40;59.00
2497;DHT22;1259;48.306;14.374;2023-04-06T12:36:34;9.50;60.00
2497;DHT22;1259;48.306;14.374;2023-04-06T12:39:00;9.60;60.80
2497;DHT22;1259;48.306;14.374;2023-04-06T12:41:28;9.60;60.40
2497;DHT22;1259;48.306;14.374;2023-04-06T12:43:55;9.70;58.50
2497;DHT22;1259;48.306;14.374;2023-04-06T12:46:23;9.80;59.00
2497;DHT22;1259;48.306;14.374;2023-04-06T12:48:50;9.60;58.60
2497;DHT22;1259;48.306;14.374;2023-04-06T12:51:20;9.60;59.60
2497;DHT22;1259;48.306;14.374;2023-04-06T12:53:47;9.60;61.00
2497;DHT22;1259;48.306;14.374;2023-04-06T12:56:14;9.60;58.00
2497;DHT22;1259;48.306;14.374;2023-04-06T12:58:41;9.70;59.20
2497;DHT22;1259;48.306;14.374;2023-04-06T13:01:07;9.30;57.80
2497;DHT22;1259;48.306;14.374;2023-04-06T13:03:34;9.60;60.00
2497;DHT22;1259;48.306;14.374;2023-04-06T13:06:01;9.30;57.90
2497;DHT22;1259;48.306;14.374;2023-04-06T13:08:29;9.40;59.20
2497;DHT22;1259;48.306;14.374;2023-04-06T13:10:56;9.50;58.90
2497;DHT22;1259;48.306;14.374;2023-04-06T13:13:23;9.50;57.80
2497;DHT22;1259;48.306;14.374;2023-04-06T13:15:50;9.40;58.50
2497;DHT22;1259;48.306;14.374;2023-04-06T13:18:17;9.30;57.40
2497;DHT22;1259;48.306;14.374;2023-04-06T13:20:43;9.20;57.30
2497;DHT22;1259;48.306;14.374;2023-04-06T13:23:10;9.40;58.70
2497;DHT22;1259;48.306;14.374;2023-04-06T13:25:38;9.10;58.00
2497;DHT22;1259;48.306;14.374;2023-04-06T13:28:05;8.80;58.70
2497;DHT22;1259;48.306;14.374;2023-04-06T13:30:31;8.80;59.20
2497;DHT22;1259;48.306;14.374;2023-04-06T13:32:58;8.90;58.30
2497;DHT22;1259;48.306;14.374;2023-04-06T13:35:25;9.20;59.90
2497;DHT22;1259;48.306;14.374;2023-04-06T13:37:51;9.20;59.30
2497;DHT22;1259;48.306;14.374;2023-04-06T13:40:18;9.20;58.00
2497;DHT22;1259;48.306;14.374;2023-04-06T13:42:47;9.30;58.70
2497;DHT22;1259;48.306;14.374;2023-04-06T13:45:14;9.20;60.50
2497;DHT22;1259;48.306;14.374;2023-04-06T13:47:41;9.30;57.90
2497;DHT22;1259;48.306;14.374;2023-04-06T13:50:08;9.10;57.80
2497;DHT22;1259;48.306;14.374;2023-04-06T13:52:34;9.00;59.60
2497;DHT22;1259;48.306;14.374;2023-04-06T13:55:01;9.10;58.10
2497;DHT22;1259;48.306;14.374;2023-04-06T13:57:28;9.20;57.30
2497;DHT22;1259;48.306;14.374;2023-04-06T13:59:57;9.30;57.70
2497;DHT22;1259;48.306;14.374;2023-04-06T14:02:23;9.20;56.10
2497;DHT22;1259;48.306;14.374;2023-04-06T14:04:52;9.10;56.30
2497;DHT22;1259;48.306;14.374;2023-04-06T14:07:20;9.10;56.00
2497;DHT22;1259;48.306;14.374;2023-04-06T14:09:47;9.00;56.30
2497;DHT22;1259;48.306;14.374;2023-04-06T14:12:13;9.20;58.70
2497;DHT22;1259;48.306;14.374;2023-04-06T14:14:40;9.20;57.70
2497;DHT22;1259;48.306;14.374;2023-04-06T14:17:08;9.20;57.60
2497;DHT22;1259;48.306;14.374;2023-04-06T14:19:35;9.20;58.60
2497;DHT22;1259;48.306;14.374;2023-04-06T14:22:02;9.30;57.40
2497;DHT22;1259;48.306;14.374;2023-04-06T14:24:29;9.30;56.50
2497;DHT22;1259;48.306;14.374;2023-04-06T14:26:56;9.30;55.90
2497;DHT22;1259;48.306;14.374;2023-04-06T14:29:23;9.20;55.60
2497;DHT22;1259;48.306;14.374;2023-04-06T14:31:49;9.20;54.90
2497;DHT22;1259;48.306;14.374;2023-04-06T14:34:17;9.30;56.60
2497;DHT22;1259;48.306;14.374;2023-04-06T14:36:44;9.30;55.20
2497;DHT22;1259;48.306;14.374;2023-04-06T14:39:11;9.00;55.30
2497;DHT22;1259;48.306;14.374;2023-04-06T14:41:38;9.00;54.90
2497;DHT22;1259;48.306;14.374;2023-04-06T14:44:04;9.00;56.70
2497;DHT22;1259;48.306;14.374;2023-04-06T14:46:31;9.10;56.70
2497;DHT22;1259;48.306;14.374;2023-04-06T14:48:58;9.00;55.30
2497;DHT22;1259;48.306;14.374;2023-04-06T14:51:27;8.90;55.50
2497;DHT22;1259;48.306;14.374;2023-04-06T14:53:53;9.10;56.30
2497;DHT22;1259;48.306;14.374;2023-04-06T14:56:20;9.10;55.10
2497;DHT22;1259;48.306;14.374;2023-04-06T14:58:47;9.00;54.90
2497;DHT22;1259;48.306;14.374;2023-04-06T15:01:15;9.00;54.60
2497;DHT22;1259;48.306;14.374;2023-04-06T15:03:41;8.90;55.10
2497;DHT22;1259;48.306;14.374;2023-04-06T15:06:11;9.10;55.60
2497;DHT22;1259;48.306;14.374;2023-04-06T15:08:41;9.10;55.50
2497;DHT22;1259;48.306;14.374;2023-04-06T15:11:08;9.00;54.50
2497;DHT22;1259;48.306;14.374;2023-04-06T15:13:36;8.90;54.90
2497;DHT22;1259;48.306;14.374;2023-04-06T15:16:03;8.80;55.10
2497;DHT22;1259;48.306;14.374;2023-04-06T15:18:30;8.70;55.70
2497;DHT22;1259;48.306;14.374;2023-04-06T15:20:56;8.80;56.30
2497;DHT22;1259;48.306;14.374;2023-04-06T15:23:23;8.70;54.10
2497;DHT22;1259;48.306;14.374;2023-04-06T15:25:51;8.70;53.90
2497;DHT22;1259;48.306;14.374;2023-04-06T15:28:18;8.70;53.80
2497;DHT22;1259;48.306;14.374;2023-04-06T15:30:45;8.70;54.60
2497;DHT22;1259;48.306;14.374;2023-04-06T15:33:11;8.70;55.00
2497;DHT22;1259;48.306;14.374;2023-04-06T15:35:38;8.80;55.00
2497;DHT22;1259;48.306;14.374;2023-04-06T15:38:07;8.80;55.40
2497;DHT22;1259;48.306;14.374;2023-04-06T15:40:33;8.80;55.00
2497;DHT22;1259;48.306;14.374;2023-04-06T15:43:02;8.70;54.00
2497;DHT22;1259;48.306;14.374;2023-04-06T15:45:29;8.80;55.10
2497;DHT22;1259;48.306;14.374;2023-04-06T15:47:56;8.70;55.50
2497;DHT22;1259;48.306;14.374;2023-04-06T15:50:23;8.70;55.40
2497;DHT22;1259;48.306;14.374;2023-04-06T15:52:49;8.60;54.30
2497;DHT22;1259;48.306;14.374;2023-04-06T15:55:16;8.60;55.00
2497;DHT22;1259;48.306;14.374;2023-04-06T15:57:43;8.60;55.20
2497;DHT22;1259;48.306;14.374;2023-04-06T16:00:11;8.60;54.50
2497;DHT22;1259;48.306;14.374;2023-04-06T16:02:38;8.60;54.00